Archbold, Ohio
Current Conditions -  °F | °C
As of 10:55 AM on Friday 24 Oct 2014 (Local Time) from KUSE Reporting Station
Haze Haze  
Wind Chill: 12°   Ceiling: Unl
Heat Index: 12°   Visibility: 5mi
Dew Point:   Wind: 7mph
Humidity: 72%   Direction: 230°SW
Pressure: 30.09"   Gusts: NA
Location:  41.52°N, 84.31°W
Report Text: KUSE 241455Z AUTO 23006KT 5SM HZ SCT048 12/07 A3009 RMK AO2
Loading
Personal Weather Stations






























Interactive Weather Map
Tropical Storm Tracking
New forecast layout! Learn more

10-Day Weather Forecast

Advertisements
Track Severe Weather on mobile